CDT,Max TemperatureF,Mean TemperatureF,Min TemperatureF,Max Dew PointF,MeanDew PointF,Min DewpointF,Max Humidity, Mean Humidity, Min Humidity, Max Sea Level PressureIn, Mean Sea Level PressureIn, Min Sea Level PressureIn, Max VisibilityMiles, Mean VisibilityMiles, Min VisibilityMiles, Max Wind SpeedMPH, Mean Wind SpeedMPH, Max Gust SpeedMPH,PrecipitationIn, CloudCover, Events, WindDirDegrees
2013-3-1,30,21,12,19,17,10,100,77,64,30.37,30.32,30.25,10,10,10,17,11,24,0.00,4,,328
2013-3-2,33,20,8,25,17,5,100,85,69,30.34,30.20,30.00,10,9,0,16,5,20,0.00,3,,122
2013-3-3,35,29,23,30,25,21,93,82,75,29.99,29.82,29.68,10,7,4,17,9,22,0.00,1,,104
2013-3-4,41,34,26,30,25,18,93,77,52,30.01,29.81,29.65,10,10,2,26,10,36,0.00,4,,342
2013-3-5,26,22,19,25,18,16,93,77,69,30.40,30.21,29.99,10,9,2,34,25,44,0.00,8,,306
2013-3-6,30,22,15,21,17,12,100,81,64,30.41,30.33,30.20,10,9,3,15,8,21,0.00,4,,88
2013-3-7,44,32,21,30,24,18,93,77,53,30.21,30.13,30.06,10,10,7,22,12,26,0.00,0,,115
2013-3-8,46,36,26,37,30,25,93,81,61,30.17,30.06,29.87,10,7,3,14,8,18,0.00,2,,91
2013-3-9,39,34,30,39,34,27,100,94,86,29.87,29.74,29.63,10,5,0,26,11,33,0.10,8,,23
2013-3-10,30,24,19,28,20,14,93,82,74,30.04,29.99,29.87,10,8,3,33,25,41,0.00,8,,326
2013-3-11,35,24,12,25,17,9,92,76,48,30.01,29.92,29.84,10,10,5,18,12,23,0.00,2,,295
2013-3-12,33,27,19,27,20,16,93,72,60,30.32,30.15,29.98,10,10,6,32,18,41,0.00,5,,300
2013-3-13,39,27,15,28,20,10,93,76,52,30.38,30.29,30.13,10,10,10,18,8,23,0.00,0,,156
2013-3-14,59,44,28,43,34,25,100,70,51,30.12,30.06,29.99,10,10,10,20,9,22,0.00,0,,321
2013-3-15,51,40,30,39,35,28,93,82,58,29.98,29.84,29.76,10,9,4,23,7,28,0.00,3,,12
2013-3-16,30,24,19,25,17,12,86,73,55,30.19,30.13,29.96,10,10,9,25,17,33,0.00,5,,338
2013-3-17,39,29,19,34,21,14,93,72,48,30.18,29.92,29.65,10,10,9,23,14,33,0.00,6,,114
2013-3-18,37,27,17,36,14,3,93,59,38,30.05,29.86,29.66,10,10,4,37,22,45,0.00,2,,293
2013-3-19,37,24,12,18,12,3,93,66,41,30.37,30.17,30.05,10,10,10,24,8,31,0.00,1,,320
2013-3-20,30,20,10,10,5,1,85,57,34,30.40,30.29,30.11,10,10,10,17,12,23,0.00,0,,326
2013-3-21,33,22,12,19,11,3,86,63,30,30.11,30.00,29.92,10,10,10,14,9,17,0.00,4,,95
2013-3-22,30,26,23,27,21,18,93,80,69,30.06,30.00,29.97,10,8,2,12,7,,0.00,7,,93
2013-3-23,33,28,24,28,25,19,93,86,74,30.18,30.12,30.03,10,8,1,20,7,23,0.00,8,,342
2013-3-24,28,22,17,23,18,12,93,79,59,30.16,30.12,30.06,10,8,2,22,17,28,0.00,6,,315
2013-3-25,28,24,21,21,19,18,93,78,64,30.35,30.26,30.16,10,9,2,25,18,33,0.00,6,,320
2013-3-26,37,24,12,21,17,10,100,70,45,30.35,30.28,30.19,10,10,10,13,5,,0.00,1,,140
2013-3-27,53,38,23,28,24,19,93,63,35,30.23,30.19,30.14,10,10,10,22,10,25,0.00,0,,114
2013-3-28,55,40,26,36,30,25,93,68,41,30.21,30.18,30.15,10,9,3,15,8,22,0.00,1,,127
2013-3-29,68,49,30,46,35,27,93,62,30,30.18,30.09,29.97,10,9,5,26,9,33,0.00,1,,137
2013-3-30,62,50,39,46,40,36,100,72,39,29.99,29.96,29.92,10,9,3,25,13,39,0.06,2,,287
2013-3-31,44,34,21,37,29,16,100,75,39,30.21,30.04,29.96,10,7,0,21,12,28,0.05,2,,315